Time;durP1;ratioP1;P1;durP2;ratioP2;P2;SDS_P1;SDS_P2;PMS_P1;PMS_P2;Temp;Humidity;BMP_temperature;BMP_pressure;BME280_temperature;BME280_humidity;BME280_pressure;Samples;Min_cycle;Max_cycle;Signal;HPM_P1;HPM_P2
2023/08/23 00:01:33;;;;;;;11.77;10.52;;;;;;;23.93;47.43;94173.75;4995155;28;20037;-76
2023/08/23 00:03:58;;;;;;;16.08;11.68;;;;;;;23.82;47.31;94168.31;4987981;28;20065;-76
2023/08/23 00:06:24;;;;;;;14.38;10.20;;;;;;;23.73;47.61;94164.44;4994310;28;20042;-75
2023/08/23 00:08:49;;;;;;;11.52;10.52;;;;;;;23.72;47.86;94169.09;4988523;28;20536;-75
2023/08/23 00:11:14;;;;;;;12.50;11.20;;;;;;;23.74;47.49;94174.16;4988639;28;20051;-76
2023/08/23 00:13:40;;;;;;;14.73;10.60;;;;;;;23.69;48.15;94175.31;4989888;28;20050;-76
2023/08/23 00:16:05;;;;;;;11.88;9.93;;;;;;;23.68;48.40;94190.06;4991555;28;20493;-75
2023/08/23 00:18:31;;;;;;;13.32;11.23;;;;;;;23.63;48.38;94182.28;4991807;28;20556;-76
2023/08/23 00:20:56;;;;;;;15.80;11.80;;;;;;;23.58;48.52;94183.44;4985817;28;20092;-76
2023/08/23 00:23:22;;;;;;;12.93;11.52;;;;;;;23.46;48.62;94167.53;4988113;28;20038;-75
2023/08/23 00:25:47;;;;;;;14.15;12.05;;;;;;;23.45;48.79;94176.03;4994493;28;20048;-76
2023/08/23 00:28:15;;;;;;;12.02;10.75;;;;;;;23.37;48.78;94160.88;4991956;28;20537;-76
2023/08/23 00:30:56;;;;;;;13.43;11.13;;;;;;;23.38;48.69;94171.38;4986207;28;20969;-75
2023/08/23 00:33:22;;;;;;;14.27;12.68;;;;;;;23.39;48.54;94172.94;4988551;28;20049;-76
2023/08/23 00:35:47;;;;;;;12.75;11.55;;;;;;;23.41;48.81;94175.25;4988161;28;20680;-75
2023/08/23 00:38:13;;;;;;;12.68;11.38;;;;;;;23.36;48.73;94167.50;4985384;28;20432;-76
2023/08/23 00:40:39;;;;;;;14.43;11.70;;;;;;;23.34;48.89;94178.72;4992028;28;20076;-76
2023/08/23 00:43:07;;;;;;;13.32;11.25;;;;;;;23.25;49.00;94169.41;4992061;28;20036;-74
2023/08/23 00:45:36;;;;;;;13.02;11.60;;;;;;;23.26;49.08;94168.25;4991914;28;20040;-75
2023/08/23 00:48:03;;;;;;;13.85;10.65;;;;;;;23.17;49.30;94161.25;4986175;28;20068;-75
2023/08/23 00:50:30;;;;;;;16.35;11.35;;;;;;;23.19;49.61;94174.44;4984219;28;20083;-76
2023/08/23 00:52:55;;;;;;;13.88;11.50;;;;;;;23.17;49.35;94181.41;4987395;28;20022;-76
2023/08/23 00:55:22;;;;;;;15.25;11.30;;;;;;;23.09;49.48;94170.53;4987217;28;20033;-75
2023/08/23 00:57:49;;;;;;;13.80;10.68;;;;;;;23.09;49.63;94164.34;4993535;28;20117;-74
2023/08/23 01:00:15;;;;;;;13.13;10.93;;;;;;;23.09;49.76;94164.34;4990057;28;20488;-76
2023/08/23 01:02:41;;;;;;;15.48;11.75;;;;;;;23.09;49.82;94167.03;4987684;28;20036;-75
2023/08/23 01:05:07;;;;;;;12.82;11.55;;;;;;;23.05;49.94;94169.75;4985996;28;20046;-75
2023/08/23 01:08:19;;;;;;;11.80;10.00;;;;;;;23.03;49.85;94176.72;4990401;28;20318;-76
2023/08/23 01:10:54;;;;;;;16.23;11.68;;;;;;;22.90;49.89;94159.25;4984292;28;20038;-75
2023/08/23 01:13:39;;;;;;;13.18;11.18;;;;;;;22.98;50.07;94179.78;4990757;28;20492;-77
2023/08/23 01:16:09;;;;;;;12.75;11.20;;;;;;;22.89;50.16;94171.25;4991243;28;20583;-74
2023/08/23 01:18:36;;;;;;;13.77;12.27;;;;;;;22.93;49.92;94178.22;4994348;28;20304;-76
2023/08/23 01:21:02;;;;;;;13.60;11.85;;;;;;;22.88;49.99;94170.47;4989038;28;20205;-75
2023/08/23 01:23:30;;;;;;;18.13;12.30;;;;;;;22.87;50.10;94174.34;4991972;28;20024;-77
2023/08/23 01:25:55;;;;;;;17.05;12.98;;;;;;;22.93;50.22;94178.22;4984590;28;20034;-75
2023/08/23 01:28:21;;;;;;;13.98;11.77;;;;;;;22.91;50.15;94182.50;4985784;28;20565;-76
2023/08/23 01:30:48;;;;;;;15.60;11.45;;;;;;;22.83;50.62;94170.06;4991367;28;20026;-74
2023/08/23 01:33:26;;;;;;;15.05;13.10;;;;;;;22.81;50.78;94167.72;4988006;28;20043;-76
2023/08/23 01:36:01;;;;;;;12.88;11.55;;;;;;;22.79;50.59;94175.44;4974872;28;20051;-77
2023/08/23 01:38:29;;;;;;;13.25;11.73;;;;;;;22.77;50.76;94175.06;4992218;28;20014;-76
2023/08/23 01:40:55;;;;;;;15.02;12.68;;;;;;;22.69;50.66;94162.63;4984875;28;20395;-76
2023/08/23 01:43:21;;;;;;;14.18;12.80;;;;;;;22.72;50.85;94157.22;4980732;28;20352;-75
2023/08/23 01:45:47;;;;;;;15.32;11.50;;;;;;;22.72;50.72;94168.06;4989379;28;20034;-76
2023/08/23 01:48:12;;;;;;;13.45;12.07;;;;;;;22.53;50.86;94137.78;4985058;28;20068;-77
2023/08/23 01:50:38;;;;;;;16.00;12.30;;;;;;;22.63;50.86;94158.75;4986652;28;20018;-76
2023/08/23 01:53:03;;;;;;;13.55;12.23;;;;;;;22.61;50.66;94158.34;4989189;28;20625;-75
2023/08/23 01:55:29;;;;;;;12.90;11.32;;;;;;;22.62;50.92;94157.19;4990546;28;20161;-75
2023/08/23 01:57:54;;;;;;;13.93;12.50;;;;;;;22.66;50.82;94163.38;4991333;28;20038;-75
2023/08/23 02:00:19;;;;;;;14.00;12.55;;;;;;;22.64;50.64;94165.69;4988607;28;20039;-74
2023/08/23 02:02:45;;;;;;;14.07;12.68;;;;;;;22.50;51.00;94149.38;4991305;28;20057;-75
2023/08/23 02:05:10;;;;;;;14.93;11.15;;;;;;;22.52;51.18;94160.63;4991127;28;20045;-76
2023/08/23 02:07:36;;;;;;;13.73;11.55;;;;;;;22.57;50.81;94165.69;4994497;28;20048;-75
2023/08/23 02:10:01;;;;;;;15.45;12.65;;;;;;;22.51;50.97;94161.78;4986165;28;20039;-77
2023/08/23 02:12:26;;;;;;;12.48;11.27;;;;;;;22.44;51.22;94156.34;4994210;28;20137;-75
2023/08/23 02:14:52;;;;;;;12.75;11.45;;;;;;;22.46;51.30;94170.25;4982845;28;20613;-76
2023/08/23 02:17:17;;;;;;;12.98;11.73;;;;;;;22.57;50.75;94165.69;4986969;28;20021;-78
2023/08/23 02:19:42;;;;;;;13.48;12.05;;;;;;;22.52;50.86;94174.16;4989108;28;20490;-77
2023/08/23 02:22:08;;;;;;;14.13;10.95;;;;;;;22.46;51.29;94171.03;4986248;28;20038;-78
2023/08/23 02:24:33;;;;;;;13.88;11.60;;;;;;;22.30;51.09;94148.88;4990481;28;20040;-78
2023/08/23 02:26:58;;;;;;;13.65;11.88;;;;;;;22.35;51.42;94155.88;4982673;28;20483;-77
2023/08/23 02:29:24;;;;;;;14.77;11.85;;;;;;;22.43;51.34;94166.41;4989310;28;20084;-76
2023/08/23 02:31:49;;;;;;;13.27;11.32;;;;;;;22.39;51.42;94165.56;4985834;28;20039;-76
2023/08/23 02:34:15;;;;;;;15.68;12.18;;;;;;;22.26;51.54;94151.59;4990430;28;20066;-76
2023/08/23 02:36:40;;;;;;;13.27;10.60;;;;;;;22.32;51.82;94170.19;4988787;28;20042;-76
2023/08/23 02:39:06;;;;;;;13.30;11.77;;;;;;;22.15;51.83;94148.00;4988005;28;20330;-76
2023/08/23 02:41:31;;;;;;;12.70;11.35;;;;;;;22.02;51.64;94130.50;4984394;28;20018;-77
2023/08/23 02:43:57;;;;;;;14.65;11.98;;;;;;;22.13;51.45;94149.53;4985429;28;20412;-75
2023/08/23 02:46:22;;;;;;;13.90;11.07;;;;;;;22.09;51.96;94140.63;4988208;28;20653;-76
2023/08/23 02:48:48;;;;;;;22.83;13.23;;;;;;;22.05;51.90;94140.59;4990874;28;20667;-75
2023/08/23 02:51:13;;;;;;;14.02;11.52;;;;;;;22.15;51.70;94156.13;4986146;28;20489;-75
2023/08/23 02:53:38;;;;;;;12.70;11.15;;;;;;;22.15;51.70;94155.34;4999618;28;20019;-75
2023/08/23 02:56:04;;;;;;;13.07;10.95;;;;;;;22.12;51.68;94156.88;4991093;28;20098;-75
2023/08/23 02:58:29;;;;;;;14.50;11.93;;;;;;;22.07;51.78;94156.47;4994308;28;20408;-77
2023/08/23 03:00:55;;;;;;;12.45;10.55;;;;;;;22.07;52.08;94159.16;4988735;28;20852;-76
2023/08/23 03:03:20;;;;;;;13.98;10.82;;;;;;;22.02;52.04;94164.94;4989545;28;20046;-75
2023/08/23 03:05:56;;;;;;;12.45;10.75;;;;;;;21.99;52.23;94158.38;4993056;28;20498;-76
2023/08/23 03:08:23;;;;;;;12.23;11.13;;;;;;;21.99;52.12;94158.38;4992208;28;20140;-75
2023/08/23 03:10:48;;;;;;;12.63;10.20;;;;;;;21.94;52.53;94150.59;4985417;28;20070;-76
2023/08/23 03:13:14;;;;;;;16.10;11.88;;;;;;;21.97;52.66;94155.25;4996184;28;20120;-77
2023/08/23 03:15:39;;;;;;;14.38;12.02;;;;;;;21.89;52.73;94142.81;4990085;28;20045;-76
2023/08/23 03:18:04;;;;;;;12.63;11.32;;;;;;;21.91;52.91;94162.16;4992212;28;20450;-74
2023/08/23 03:20:30;;;;;;;12.88;11.60;;;;;;;21.91;52.87;94159.44;4989958;28;20034;-75
2023/08/23 03:22:55;;;;;;;13.43;11.95;;;;;;;21.82;52.61;94157.06;4997090;28;20502;-76
2023/08/23 03:25:21;;;;;;;13.45;11.15;;;;;;;21.92;52.75;94165.66;4988806;28;20104;-76
2023/08/23 03:27:52;;;;;;;13.57;11.38;;;;;;;21.84;52.67;94151.28;4994908;28;20131;-76
2023/08/23 03:30:18;;;;;;;13.35;12.05;;;;;;;21.81;52.77;94158.22;4989009;28;20125;-76
2023/08/23 03:32:43;;;;;;;20.27;12.90;;;;;;;21.76;52.95;94152.38;4993514;28;20020;-75
2023/08/23 03:35:08;;;;;;;16.75;12.35;;;;;;;21.74;53.32;94157.41;4990141;28;20038;-76
2023/08/23 03:37:34;;;;;;;17.42;13.32;;;;;;;21.72;53.24;94154.28;4990624;28;20030;-77
2023/08/23 03:39:59;;;;;;;13.85;12.23;;;;;;;21.76;53.40;94157.78;4985948;28;20045;-76
2023/08/23 03:42:24;;;;;;;13.95;12.35;;;;;;;21.70;53.39;94151.19;4996240;28;20067;-76
2023/08/23 03:44:50;;;;;;;14.93;11.80;;;;;;;21.75;53.61;94165.16;4989555;28;20026;-74
2023/08/23 03:47:15;;;;;;;14.52;11.55;;;;;;;21.71;53.85;94166.25;4990458;28;20035;-76
2023/08/23 03:49:41;;;;;;;15.93;12.13;;;;;;;21.68;53.85;94164.31;4987411;28;20494;-76
2023/08/23 03:52:06;;;;;;;16.55;12.20;;;;;;;21.70;53.88;94165.50;4989801;28;20070;-75
2023/08/23 03:54:31;;;;;;;13.77;11.55;;;;;;;21.68;53.90;94164.31;4986153;28;20446;-76
2023/08/23 03:56:57;;;;;;;16.65;12.65;;;;;;;21.60;54.20;94154.59;4993446;28;20482;-75
2023/08/23 03:59:22;;;;;;;15.02;12.25;;;;;;;21.60;54.18;94152.66;4990659;28;20030;-76
2023/08/23 04:01:47;;;;;;;15.68;12.10;;;;;;;21.56;54.30;94151.09;4992742;28;20050;-76
2023/08/23 04:04:13;;;;;;;17.45;12.52;;;;;;;21.56;54.70;94151.09;4990105;28;20043;-76
2023/08/23 04:06:39;;;;;;;14.25;12.10;;;;;;;21.63;54.93;94162.72;4991792;28;20042;-76
2023/08/23 04:09:04;;;;;;;14.38;12.02;;;;;;;21.64;54.92;94166.22;4990236;28;20019;-75
2023/08/23 04:11:30;;;;;;;15.55;12.55;;;;;;;21.48;54.80;94133.19;4999504;28;20114;-76
2023/08/23 04:13:55;;;;;;;14.48;12.25;;;;;;;21.68;54.95;94162.38;4987821;28;20041;-75
2023/08/23 04:16:21;;;;;;;17.60;12.25;;;;;;;21.68;55.21;94170.50;4994420;28;20180;-75
2023/08/23 04:18:46;;;;;;;16.40;13.27;;;;;;;21.63;54.79;94156.53;4989666;28;20037;-75
2023/08/23 04:21:11;;;;;;;16.08;14.38;;;;;;;21.62;55.24;94161.16;4994151;28;20042;-76
2023/08/23 04:23:37;;;;;;;16.65;13.57;;;;;;;21.61;55.44;94150.72;4987199;28;20527;-76
2023/08/23 04:26:02;;;;;;;19.90;13.52;;;;;;;21.61;55.86;94159.59;4992424;28;20129;-75
2023/08/23 04:28:27;;;;;;;15.70;12.73;;;;;;;21.75;55.89;94164.38;4992354;28;20046;-76
2023/08/23 04:30:58;;;;;;;14.77;13.27;;;;;;;21.84;55.40;94162.13;4988193;28;20053;-76
2023/08/23 04:33:24;;;;;;;16.67;14.25;;;;;;;21.86;55.03;94163.28;4993121;28;20492;-77
2023/08/23 04:35:49;;;;;;;15.63;14.00;;;;;;;21.87;54.68;94158.66;4989873;28;20123;-76
2023/08/23 04:38:15;;;;;;;17.00;15.27;;;;;;;21.97;54.46;94162.59;4985407;28;20038;-76
2023/08/23 04:40:40;;;;;;;15.73;14.05;;;;;;;22.04;54.48;94159.94;4990239;28;20779;-76
2023/08/23 04:43:05;;;;;;;17.20;15.27;;;;;;;22.11;54.38;94166.16;4990117;28;20051;-76
2023/08/23 04:45:31;;;;;;;18.13;14.27;;;;;;;22.09;54.05;94157.66;4992213;28;20046;-74
2023/08/23 04:47:56;;;;;;;19.30;14.52;;;;;;;22.21;53.89;94161.97;4996330;28;20093;-75
2023/08/23 04:50:22;;;;;;;17.27;15.30;;;;;;;22.21;53.78;94160.06;4988441;28;20705;-75
2023/08/23 04:52:47;;;;;;;17.45;15.60;;;;;;;22.27;53.25;94150.44;4993947;28;20121;-76
2023/08/23 04:55:13;;;;;;;21.98;14.93;;;;;;;22.44;53.15;94167.91;4988938;28;20459;-76
2023/08/23 04:57:38;;;;;;;17.80;14.90;;;;;;;22.50;53.07;94176.47;4985591;28;20038;-76
2023/08/23 05:00:08;;;;;;;17.38;15.25;;;;;;;22.52;52.44;94176.88;4988189;28;20042;-75
2023/08/23 05:02:34;;;;;;;18.50;15.95;;;;;;;22.50;52.31;94177.25;4995369;28;20035;-77
2023/08/23 05:04:59;;;;;;;22.50;15.05;;;;;;;22.52;52.14;94163.34;4982118;28;20457;-76
2023/08/23 05:07:24;;;;;;;18.30;15.68;;;;;;;22.64;51.95;94173.81;4986138;28;20067;-76
2023/08/23 05:09:50;;;;;;;17.67;15.13;;;;;;;22.74;52.42;94181.22;4985751;28;20058;-76
2023/08/23 05:12:15;;;;;;;20.58;15.48;;;;;;;22.71;52.54;94163.03;4986183;28;20038;-76
2023/08/23 05:14:40;;;;;;;19.27;15.77;;;;;;;22.81;51.44;94159.59;4988559;28;20521;-75
2023/08/23 05:17:06;;;;;;;28.55;15.82;;;;;;;22.83;52.12;94140.97;4985523;28;20544;-78
2023/08/23 05:19:31;;;;;;;18.15;15.88;;;;;;;23.00;52.01;94178.25;4987829;28;20043;-78
2023/08/23 05:21:56;;;;;;;20.38;15.07;;;;;;;22.92;51.63;94137.94;4992567;28;20552;-77
2023/08/23 05:24:22;;;;;;;20.70;16.15;;;;;;;23.07;51.93;94167.41;4984055;28;20057;-76
2023/08/23 05:26:47;;;;;;;20.52;15.32;;;;;;;23.07;51.53;94158.53;4988465;28;20133;-76
2023/08/23 05:29:12;;;;;;;19.50;16.33;;;;;;;23.13;51.95;94167.81;4988777;28;20047;-76
2023/08/23 05:31:38;;;;;;;27.23;16.23;;;;;;;23.07;52.73;94166.66;4988338;28;20406;-77
2023/08/23 05:34:03;;;;;;;19.58;16.73;;;;;;;23.10;52.53;94172.09;4982539;28;20035;-75
2023/08/23 05:36:29;;;;;;;18.02;15.93;;;;;;;23.17;52.50;94161.25;4986698;28;20049;-78
2023/08/23 05:38:55;;;;;;;19.25;16.20;;;;;;;23.29;51.91;94172.91;4990183;28;20079;-77
2023/08/23 05:41:20;;;;;;;25.83;17.75;;;;;;;23.28;52.21;94166.69;4986386;28;21108;-77
2023/08/23 05:43:46;;;;;;;23.08;17.55;;;;;;;23.36;50.27;94178.34;4985200;28;20494;-76
2023/08/23 05:46:11;;;;;;;21.83;18.05;;;;;;;23.37;51.48;94169.03;4987047;28;20163;-77
2023/08/23 05:48:36;;;;;;;23.15;17.65;;;;;;;23.38;50.49;94159.75;4993946;28;20070;-76
2023/08/23 05:51:03;;;;;;;21.90;17.67;;;;;;;23.46;50.76;94174.88;4988188;28;20042;-76
2023/08/23 05:53:28;;;;;;;20.38;18.13;;;;;;;23.45;50.78;94163.25;4992031;28;20038;-78
2023/08/23 05:55:54;;;;;;;20.85;16.35;;;;;;;23.54;50.53;94168.31;4985579;28;20138;-77
2023/08/23 05:58:19;;;;;;;20.27;17.38;;;;;;;23.38;50.23;94165.16;4984056;28;20034;-75
2023/08/23 06:00:46;;;;;;;22.58;18.58;;;;;;;23.49;49.63;94163.28;4981787;28;20141;-77
2023/08/23 06:03:15;;;;;;;24.88;18.13;;;;;;;23.43;50.02;94167.50;4986122;28;20047;-78
2023/08/23 06:05:43;;;;;;;18.35;15.57;;;;;;;23.54;50.59;94162.91;4986205;28;20118;-78
2023/08/23 06:08:09;;;;;;;22.83;17.23;;;;;;;23.54;50.06;94158.25;4984065;28;20038;-76
2023/08/23 06:10:35;;;;;;;26.67;16.90;;;;;;;23.60;49.62;94164.06;4989913;28;20092;-77
2023/08/23 06:13:00;;;;;;;21.55;15.82;;;;;;;23.73;50.16;94169.88;4990196;28;20122;-77
2023/08/23 06:15:26;;;;;;;20.10;15.70;;;;;;;23.78;50.35;94172.97;4987470;28;20057;-76
2023/08/23 06:17:53;;;;;;;19.33;15.98;;;;;;;23.78;50.49;94158.63;4983638;28;20733;-76
2023/08/23 06:20:19;;;;;;;20.70;16.30;;;;;;;23.92;49.38;94164.81;4985005;28;20028;-78
2023/08/23 06:22:44;;;;;;;20.42;16.73;;;;;;;24.04;49.70;94171.03;4982793;28;20042;-78
2023/08/23 06:25:10;;;;;;;20.83;16.38;;;;;;;23.95;50.22;94155.88;4983454;28;20045;-78
2023/08/23 06:27:35;;;;;;;31.40;16.60;;;;;;;24.12;50.26;94176.09;4984577;28;20030;-78
2023/08/23 06:30:03;;;;;;;28.52;17.92;;;;;;;23.98;48.50;94159.78;4991370;28;20038;-78
2023/08/23 06:32:28;;;;;;;21.63;16.40;;;;;;;24.04;48.37;94173.75;4981945;28;20023;-78
2023/08/23 06:34:53;;;;;;;22.95;16.38;;;;;;;24.19;48.98;94170.66;4985875;28;20383;-79
2023/08/23 06:37:19;;;;;;;20.23;15.57;;;;;;;24.16;49.14;94146.19;4983815;28;20050;-77
2023/08/23 06:39:44;;;;;;;18.65;15.05;;;;;;;24.23;48.78;94157.06;4986823;28;20035;-79
2023/08/23 06:42:09;;;;;;;16.83;15.05;;;;;;;24.30;48.68;94143.44;4974868;28;20173;-77
2023/08/23 06:44:35;;;;;;;24.38;14.85;;;;;;;24.34;48.08;94146.94;4975860;28;20026;-78
2023/08/23 06:47:00;;;;;;;17.15;15.32;;;;;;;24.45;49.43;94155.84;4985944;28;20266;-77
2023/08/23 06:49:26;;;;;;;21.70;14.68;;;;;;;24.40;49.77;94154.28;4985175;28;20070;-78
2023/08/23 06:51:51;;;;;;;17.02;15.30;;;;;;;24.60;48.02;94157.34;4983042;28;20041;-79
2023/08/23 06:54:16;;;;;;;20.08;14.80;;;;;;;24.74;48.27;94165.47;4984006;28;20119;-79
2023/08/23 06:56:42;;;;;;;22.98;14.23;;;;;;;24.83;48.26;94159.63;4986336;28;20730;-78
2023/08/23 06:59:07;;;;;;;18.33;13.82;;;;;;;24.91;48.75;94160.34;4984840;28;20421;-79
2023/08/23 07:01:33;;;;;;;18.02;15.25;;;;;;;24.95;48.25;94169.28;4981147;28;20513;-78
2023/08/23 07:03:59;;;;;;;21.83;16.30;;;;;;;24.82;48.22;94158.84;4986932;28;20142;-78
2023/08/23 07:06:24;;;;;;;20.50;15.65;;;;;;;24.95;48.03;94166.56;4986904;28;20092;-78
2023/08/23 07:08:49;;;;;;;20.95;15.80;;;;;;;24.99;46.72;94145.53;4984902;28;20138;-78
2023/08/23 07:11:15;;;;;;;26.73;16.83;;;;;;;24.94;47.89;94165.00;4989653;28;20528;-75
2023/08/23 07:13:40;;;;;;;29.85;15.90;;;;;;;24.97;48.15;94165.00;4981518;28;20038;-76
2023/08/23 07:16:06;;;;;;;33.25;16.88;;;;;;;25.09;48.09;94177.38;4986860;28;20035;-77
2023/08/23 07:18:32;;;;;;;23.58;15.43;;;;;;;25.09;47.38;94166.47;4984872;28;20042;-79
2023/08/23 07:20:57;;;;;;;17.90;15.13;;;;;;;25.34;46.10;94164.44;4986486;28;20680;-77
2023/08/23 07:23:24;;;;;;;26.98;16.95;;;;;;;25.37;46.42;94171.03;4983455;28;20423;-79
2023/08/23 07:25:50;;;;;;;19.88;16.13;;;;;;;25.52;46.08;94167.03;4990153;28;20039;-79
2023/08/23 07:28:15;;;;;;;23.23;14.93;;;;;;;25.49;46.18;94170.56;4986478;28;20077;-79
2023/08/23 07:30:46;;;;;;;16.00;12.55;;;;;;;25.59;46.66;94167.75;4986893;28;20108;-78
2023/08/23 07:33:11;;;;;;;19.38;13.63;;;;;;;25.67;46.35;94158.34;4995262;28;20110;-78
2023/08/23 07:35:37;;;;;;;25.42;15.82;;;;;;;25.68;46.45;94159.91;5000759;28;20134;-78
2023/08/23 07:38:02;;;;;;;23.85;15.95;;;;;;;25.75;45.47;94158.31;4992510;28;20117;-78
2023/08/23 07:40:27;;;;;;;16.33;14.57;;;;;;;25.75;45.60;94142.75;4985177;28;20281;-78
2023/08/23 07:42:53;;;;;;;23.58;15.75;;;;;;;25.78;45.87;94144.66;4993483;28;20158;-78
2023/08/23 07:45:18;;;;;;;24.48;16.20;;;;;;;25.79;46.71;94143.47;4993171;28;20065;-79
2023/08/23 07:47:43;;;;;;;24.77;14.07;;;;;;;25.94;44.65;94149.63;4990027;28;20026;-77
2023/08/23 07:50:09;;;;;;;18.33;13.85;;;;;;;26.06;46.40;94143.66;4987132;28;20027;-79
2023/08/23 07:52:36;;;;;;;22.10;14.05;;;;;;;26.02;45.93;94140.19;5004183;28;20498;-78
2023/08/23 07:55:01;;;;;;;21.75;14.00;;;;;;;26.16;45.55;94150.97;4996343;28;20035;-79
2023/08/23 07:57:26;;;;;;;18.33;15.23;;;;;;;26.00;45.24;94126.22;4984262;28;20394;-79
2023/08/23 07:59:55;;;;;;;20.40;14.68;;;;;;;26.23;45.35;94150.91;4996384;28;20030;-77
2023/08/23 08:02:20;;;;;;;18.58;13.13;;;;;;;25.93;45.66;94150.78;4994341;28;20072;-79
2023/08/23 08:04:47;;;;;;;20.05;14.80;;;;;;;26.07;45.27;94134.31;5009041;28;20048;-78
2023/08/23 08:07:12;;;;;;;18.73;13.90;;;;;;;26.32;45.20;94153.91;4995438;28;20042;-77
2023/08/23 08:09:37;;;;;;;19.98;12.68;;;;;;;26.34;44.04;94132.50;4990087;28;20085;-80
2023/08/23 08:12:03;;;;;;;27.00;14.93;;;;;;;26.44;44.34;94145.22;4989998;28;20027;-75
2023/08/23 08:14:29;;;;;;;18.35;13.25;;;;;;;26.48;44.20;94151.44;4991856;28;20056;-79
2023/08/23 08:16:54;;;;;;;23.98;14.93;;;;;;;26.51;44.30;94128.03;4987194;28;20034;-77
2023/08/23 08:19:20;;;;;;;18.58;14.13;;;;;;;26.51;44.45;94133.47;4990256;28;20268;-79
2023/08/23 08:21:45;;;;;;;14.70;12.43;;;;;;;26.50;43.63;94126.47;4989731;28;20107;-79
2023/08/23 08:24:11;;;;;;;20.20;13.27;;;;;;;26.64;43.97;94128.28;4988324;28;20041;-79
2023/08/23 08:26:36;;;;;;;19.27;13.50;;;;;;;26.63;42.79;94143.09;4997856;28;20617;-75
2023/08/23 08:29:02;;;;;;;17.08;13.40;;;;;;;26.69;42.83;94139.50;4993292;28;20509;-77
2023/08/23 08:31:27;;;;;;;16.00;12.38;;;;;;;26.71;43.00;94120.78;4987786;28;20137;-77
2023/08/23 08:33:53;;;;;;;19.63;13.95;;;;;;;26.86;42.93;94140.47;4984533;28;21221;-79
2023/08/23 08:36:18;;;;;;;22.85;13.73;;;;;;;26.55;42.60;94112.41;4989354;28;20589;-78
2023/08/23 08:38:43;;;;;;;19.88;13.75;;;;;;;26.76;43.73;94133.19;4985968;28;20030;-78
2023/08/23 08:41:09;;;;;;;24.88;14.00;;;;;;;26.77;42.54;94126.56;4990293;28;20041;-79
2023/08/23 08:43:36;;;;;;;17.35;13.25;;;;;;;26.82;42.84;94139.75;4985471;28;20057;-78
2023/08/23 08:46:05;;;;;;;51.45;17.95;;;;;;;26.94;42.66;94139.97;4989664;28;21217;-78
2023/08/23 08:48:30;;;;;;;27.60;14.00;;;;;;;26.94;41.94;94128.28;4989573;28;20076;-79
2023/08/23 08:50:58;;;;;;;35.75;17.02;;;;;;;27.00;41.98;94137.56;4996675;28;20027;-78
2023/08/23 08:53:25;;;;;;;20.50;11.77;;;;;;;26.77;41.16;94102.00;4992845;28;20022;-79
2023/08/23 08:55:52;;;;;;;25.65;14.82;;;;;;;26.93;41.63;94126.75;4992959;28;20158;-78
2023/08/23 08:58:19;;;;;;;21.70;13.18;;;;;;;26.72;41.99;94122.34;4995208;28;20038;-79
2023/08/23 09:00:50;;;;;;;17.27;12.02;;;;;;;26.81;41.35;94106.22;4990856;28;20046;-79
2023/08/23 09:03:19;;;;;;;12.27;11.10;;;;;;;27.10;40.79;94119.53;4985783;28;20046;-79
2023/08/23 09:05:48;;;;;;;22.52;13.88;;;;;;;26.99;40.18;94122.38;4982138;28;20406;-78
2023/08/23 09:08:14;;;;;;;21.55;10.95;;;;;;;26.98;39.53;94118.84;4971850;28;20701;-79
2023/08/23 09:10:40;;;;;;;18.42;10.73;;;;;;;27.02;39.07;94104.44;4997581;28;20044;-79
2023/08/23 09:13:05;;;;;;;11.75;9.88;;;;;;;27.20;39.55;94096.75;4988880;28;20038;-78
2023/08/23 09:15:31;;;;;;;13.82;10.55;;;;;;;27.32;39.45;94099.72;4982820;28;20217;-79
2023/08/23 09:17:57;;;;;;;14.35;10.23;;;;;;;27.45;38.83;94099.91;4989107;28;20041;-78
2023/08/23 09:20:22;;;;;;;17.27;10.80;;;;;;;27.57;38.27;94095.84;4987580;28;20140;-77
2023/08/23 09:22:52;;;;;;;13.60;9.68;;;;;;;27.51;37.71;94081.09;4990200;28;20030;-78
2023/08/23 09:25:18;;;;;;;13.13;9.50;;;;;;;27.59;37.19;94107.91;4988784;28;20421;-77
2023/08/23 09:27:43;;;;;;;15.10;8.65;;;;;;;27.52;36.98;94088.09;4989168;28;20046;-78
2023/08/23 09:30:11;;;;;;;10.90;9.43;;;;;;;27.53;36.53;94093.13;4984596;28;20030;-77
2023/08/23 09:32:36;;;;;;;10.85;9.55;;;;;;;27.77;37.71;94081.03;4993652;28;20101;-78
2023/08/23 09:35:11;;;;;;;10.27;8.48;;;;;;;27.81;36.68;94089.94;4988220;28;20051;-77
2023/08/23 09:37:38;;;;;;;;;;;;;;;27.62;36.31;94085.19;4992320;28;20050;-78
2023/08/23 09:40:04;;;;;;;10.75;8.23;;;;;;;27.60;35.21;94068.47;4990959;28;19928;-78
2023/08/23 09:42:33;;;;;;;11.15;8.50;;;;;;;27.62;34.53;94074.28;4992624;28;20086;-79
2023/08/23 09:45:01;;;;;;;12.30;9.40;;;;;;;27.64;34.88;94071.13;4989491;28;20043;-78
2023/08/23 09:47:32;;;;;;;9.25;8.30;;;;;;;27.73;34.34;94063.94;4992602;28;20020;-79
2023/08/23 09:49:59;;;;;;;8.90;8.10;;;;;;;27.56;34.72;94066.94;4984615;28;20537;-79
2023/08/23 09:52:30;;;;;;;11.18;8.38;;;;;;;27.81;36.43;94050.94;4988122;28;20034;-78
2023/08/23 09:55:09;;;;;;;17.05;8.70;;;;;;;28.04;35.07;94058.31;4992004;28;20067;-78
2023/08/23 09:57:34;;;;;;;11.40;9.38;;;;;;;28.08;33.39;94048.88;4988206;28;20045;-78
2023/08/23 10:00:01;;;;;;;19.08;9.75;;;;;;;28.11;34.75;94053.53;4982143;28;20537;-79
2023/08/23 10:02:29;;;;;;;11.48;8.30;;;;;;;28.19;36.04;94030.34;4993637;28;20040;-79
2023/08/23 10:04:55;;;;;;;7.75;7.05;;;;;;;28.30;33.31;94035.59;4985338;28;20546;-79
2023/08/23 10:07:20;;;;;;;12.20;7.88;;;;;;;28.11;33.25;94039.84;4988213;28;20035;-78
2023/08/23 10:09:47;;;;;;;8.52;7.82;;;;;;;28.14;33.47;94055.44;4987825;28;20043;-78
2023/08/23 10:12:13;;;;;;;9.48;8.68;;;;;;;28.32;33.76;94043.38;4992235;28;20022;-78
2023/08/23 10:14:44;;;;;;;9.57;7.95;;;;;;;28.37;33.40;94037.41;4997494;28;20078;-77
2023/08/23 10:17:11;;;;;;;9.20;8.13;;;;;;;28.41;33.83;94041.59;4995973;28;20129;-79
2023/08/23 10:19:37;;;;;;;10.77;9.45;;;;;;;28.35;34.94;94046.06;4994639;28;20088;-78
2023/08/23 10:22:03;;;;;;;11.75;9.77;;;;;;;28.21;35.12;94041.59;4992247;28;21990;-78
2023/08/23 10:24:30;;;;;;;10.70;9.63;;;;;;;28.28;34.98;94042.66;4991195;28;20036;-76
2023/08/23 10:26:56;;;;;;;14.82;8.93;;;;;;;28.25;35.02;94034.09;4986176;28;20962;-78
2023/08/23 10:29:28;;;;;;;13.90;9.95;;;;;;;28.36;34.32;94039.38;4992223;28;21327;-80
2023/08/23 10:31:55;;;;;;;12.77;9.40;;;;;;;28.32;34.81;94029.69;4992883;28;20034;-78
2023/08/23 10:34:24;;;;;;;9.77;8.32;;;;;;;28.48;34.21;94040.69;4991924;28;20045;-79
2023/08/23 10:36:52;;;;;;;11.38;9.30;;;;;;;28.38;34.30;94037.00;4985708;28;20042;-79
2023/08/23 10:39:20;;;;;;;9.98;8.82;;;;;;;28.30;34.17;94018.41;4987637;28;20994;-79
2023/08/23 10:41:46;;;;;;;11.55;8.23;;;;;;;28.52;33.90;94041.41;4987603;28;20496;-77
2023/08/23 10:44:15;;;;;;;9.98;7.93;;;;;;;28.75;33.86;94038.59;4986887;28;20090;-80
2023/08/23 10:46:44;;;;;;;9.48;7.82;;;;;;;28.47;32.77;94014.53;4987009;28;20027;-77
2023/08/23 10:49:14;;;;;;;10.63;8.50;;;;;;;28.63;32.13;94025.53;4987662;28;20066;-78
2023/08/23 10:51:42;;;;;;;9.43;8.50;;;;;;;28.75;33.00;94027.63;4982633;28;20039;-78
2023/08/23 10:54:12;;;;;;;10.27;8.30;;;;;;;28.96;34.41;94029.91;4984160;28;20024;-79
2023/08/23 10:56:38;;;;;;;9.00;7.50;;;;;;;28.80;31.62;94013.44;4988715;28;20034;-78
2023/08/23 10:59:06;;;;;;;8.98;7.18;;;;;;;28.89;31.41;94015.63;4991554;28;20037;-78
2023/08/23 11:01:32;;;;;;;8.80;7.97;;;;;;;28.95;32.00;94013.91;4992526;28;20038;-79
2023/08/23 11:03:57;;;;;;;8.50;7.75;;;;;;;28.97;32.06;94027.94;4980545;28;20542;-78
2023/08/23 11:06:23;;;;;;;8.52;7.63;;;;;;;29.07;32.11;94027.72;4992186;28;20040;-77
2023/08/23 11:08:48;;;;;;;8.90;7.50;;;;;;;29.21;32.34;94009.44;4994167;28;20022;-78
2023/08/23 11:11:13;;;;;;;10.00;7.25;;;;;;;29.32;32.65;93994.28;4988611;28;20585;-78
2023/08/23 11:13:39;;;;;;;8.63;7.72;;;;;;;29.20;32.03;94002.41;4989209;28;20115;-77
2023/08/23 11:16:05;;;;;;;8.75;7.78;;;;;;;29.23;31.00;93996.09;4988063;28;20042;-76